createdAt,value
2018-09-30T00:01:06.694Z,5.00
2018-09-30T00:03:35.827Z,5.00
2018-09-30T00:06:04.891Z,4.90
2018-09-30T00:08:33.999Z,4.90
2018-09-30T00:11:03.249Z,4.90
2018-09-30T00:13:32.361Z,4.90
2018-09-30T00:16:01.503Z,4.90
2018-09-30T00:18:30.619Z,4.90
2018-09-30T00:20:59.654Z,4.90
2018-09-30T00:23:32.754Z,5.00
2018-09-30T00:26:07.027Z,5.00
2018-09-30T00:28:36.122Z,5.00
2018-09-30T00:31:05.177Z,5.00
2018-09-30T00:33:37.398Z,5.00
2018-09-30T00:36:06.549Z,4.90
2018-09-30T00:38:35.663Z,4.90
2018-09-30T00:41:04.758Z,4.80
2018-09-30T00:43:33.841Z,4.70
2018-09-30T00:46:02.896Z,4.70
2018-09-30T00:48:31.997Z,4.70
2018-09-30T00:51:01.095Z,4.60
2018-09-30T00:53:30.146Z,4.60
2018-09-30T00:55:59.319Z,4.60
2018-09-30T00:58:28.394Z,4.60
2018-09-30T01:00:57.495Z,4.60
2018-09-30T01:03:26.827Z,4.60
2018-09-30T01:05:55.873Z,4.50
2018-09-30T01:08:24.997Z,4.60
2018-09-30T01:10:54.088Z,4.60
2018-09-30T01:13:23.233Z,4.70
2018-09-30T01:15:52.351Z,4.70
2018-09-30T01:18:21.437Z,4.70
2018-09-30T01:20:50.521Z,4.70
2018-09-30T01:23:19.640Z,4.70
2018-09-30T01:25:48.903Z,4.80
2018-09-30T01:28:17.989Z,4.70
2018-09-30T01:30:47.037Z,4.70
2018-09-30T01:33:16.154Z,4.70
2018-09-30T01:35:45.283Z,4.60
2018-09-30T01:38:14.354Z,4.60
2018-09-30T01:40:43.439Z,4.60
2018-09-30T01:43:12.531Z,4.60
2018-09-30T01:45:41.623Z,4.60
2018-09-30T01:48:10.747Z,4.50
2018-09-30T01:50:39.813Z,4.50
2018-09-30T01:53:08.944Z,4.50
2018-09-30T01:55:38.077Z,4.50
2018-09-30T01:58:07.133Z,4.50
2018-09-30T02:00:36.238Z,4.50
2018-09-30T02:03:05.391Z,4.60
2018-09-30T02:05:34.478Z,4.70
2018-09-30T02:08:03.630Z,4.70
2018-09-30T02:10:32.730Z,4.60
2018-09-30T02:13:01.777Z,4.50
2018-09-30T02:15:31.659Z,4.40
2018-09-30T02:18:00.728Z,4.30
2018-09-30T02:20:29.846Z,4.30
2018-09-30T02:22:58.908Z,4.20
2018-09-30T02:25:28.014Z,4.10
2018-09-30T02:27:57.090Z,4.10
2018-09-30T02:30:26.169Z,4.10
2018-09-30T02:32:55.278Z,4.00
2018-09-30T02:35:24.330Z,4.00
2018-09-30T02:37:53.430Z,3.90
2018-09-30T02:40:22.507Z,3.90
2018-09-30T02:42:51.668Z,3.90
2018-09-30T02:45:23.919Z,3.90
2018-09-30T02:47:52.995Z,4.00
2018-09-30T02:50:22.063Z,4.00
2018-09-30T02:52:51.166Z,4.00
2018-09-30T02:55:20.267Z,4.10
2018-09-30T02:57:49.322Z,4.20
2018-09-30T03:00:18.451Z,4.20
2018-09-30T03:02:47.527Z,4.30
2018-09-30T03:05:16.619Z,4.40
2018-09-30T03:07:51.046Z,4.40
2018-09-30T03:10:20.252Z,4.50
2018-09-30T03:12:49.283Z,4.60
2018-09-30T03:15:18.442Z,4.60
2018-09-30T03:17:47.535Z,4.70
2018-09-30T03:20:16.623Z,4.70
2018-09-30T03:22:45.693Z,4.80
2018-09-30T03:25:14.763Z,4.80
2018-09-30T03:27:43.880Z,4.90
2018-09-30T03:30:12.991Z,4.90
2018-09-30T03:32:42.031Z,5.00
2018-09-30T03:35:11.125Z,5.00
2018-09-30T03:37:40.180Z,5.00
2018-09-30T03:40:09.231Z,5.10
2018-09-30T03:42:38.318Z,5.10
2018-09-30T03:45:07.454Z,5.20
2018-09-30T03:47:36.544Z,5.20
2018-09-30T03:50:05.646Z,5.20
2018-09-30T03:52:34.731Z,5.20
2018-09-30T03:55:03.840Z,5.20
2018-09-30T03:57:33.008Z,5.20
2018-09-30T04:00:02.195Z,5.20
2018-09-30T04:02:31.288Z,5.20
2018-09-30T04:05:00.657Z,5.20
2018-09-30T04:07:29.766Z,5.20
2018-09-30T04:09:58.866Z,5.30
2018-09-30T04:12:28.245Z,5.30
2018-09-30T04:14:57.387Z,5.30
2018-09-30T04:17:26.504Z,5.30
2018-09-30T04:19:55.598Z,5.30
2018-09-30T04:22:24.674Z,5.30
2018-09-30T04:24:53.758Z,5.30
2018-09-30T04:27:22.823Z,5.30
2018-09-30T04:29:51.957Z,5.30
2018-09-30T04:32:20.993Z,5.30
2018-09-30T04:34:50.087Z,5.20
2018-09-30T04:37:19.174Z,5.30
2018-09-30T04:39:48.262Z,5.20
2018-09-30T04:42:17.304Z,5.20
2018-09-30T04:44:46.355Z,5.20
2018-09-30T04:47:15.450Z,5.20
2018-09-30T04:49:45.163Z,5.20
2018-09-30T04:52:14.193Z,5.20
2018-09-30T04:54:43.264Z,5.20
2018-09-30T04:57:12.380Z,5.20
2018-09-30T04:59:41.515Z,5.20
2018-09-30T05:02:10.608Z,5.20
2018-09-30T05:04:39.963Z,5.20
2018-09-30T05:07:09.070Z,5.20
2018-09-30T05:09:38.166Z,5.20
2018-09-30T05:12:07.229Z,5.20
2018-09-30T05:14:36.448Z,5.10
2018-09-30T05:17:05.583Z,5.10
2018-09-30T05:19:34.697Z,5.00
2018-09-30T05:22:03.826Z,5.00
2018-09-30T05:24:32.887Z,4.90
2018-09-30T05:27:01.995Z,4.80
2018-09-30T05:29:31.136Z,4.70
2018-09-30T05:32:00.241Z,4.60
2018-09-30T05:34:29.334Z,4.50
2018-09-30T05:36:58.429Z,4.50
2018-09-30T05:39:27.475Z,4.40
2018-09-30T05:41:56.580Z,4.40
2018-09-30T05:44:25.614Z,4.40
2018-09-30T05:46:54.714Z,4.40
2018-09-30T05:49:23.765Z,4.40
2018-09-30T05:51:52.870Z,4.50
2018-09-30T05:54:21.916Z,4.50
2018-09-30T05:56:51.026Z,4.60
2018-09-30T05:59:20.231Z,4.60
2018-09-30T06:01:49.347Z,4.70
2018-09-30T06:04:18.403Z,4.70
2018-09-30T06:06:47.508Z,4.70
2018-09-30T06:09:17.216Z,4.80
2018-09-30T06:11:47.267Z,4.80
2018-09-30T06:14:16.721Z,4.80
2018-09-30T06:16:45.779Z,4.80
2018-09-30T06:19:14.820Z,4.90
2018-09-30T06:21:43.925Z,4.90
2018-09-30T06:24:13.069Z,5.00
2018-09-30T06:26:42.139Z,5.00
2018-09-30T06:29:11.279Z,5.00
2018-09-30T06:31:40.458Z,5.00
2018-09-30T06:34:09.574Z,5.00
2018-09-30T06:36:38.680Z,5.10
2018-09-30T06:39:09.364Z,5.20
2018-09-30T06:41:38.522Z,5.20
2018-09-30T06:44:07.739Z,5.30
2018-09-30T06:46:36.881Z,5.40
2018-09-30T06:49:06.123Z,5.40
2018-09-30T06:51:35.279Z,5.40
2018-09-30T06:54:04.397Z,5.50
2018-09-30T06:56:33.499Z,5.60
2018-09-30T06:59:02.627Z,5.70
2018-09-30T07:01:31.690Z,5.80
2018-09-30T07:04:00.902Z,5.90
2018-09-30T07:06:30.028Z,6.00
2018-09-30T07:08:59.288Z,6.10
2018-09-30T07:11:28.448Z,6.30
2018-09-30T07:13:57.504Z,6.40
2018-09-30T07:16:26.644Z,6.60
2018-09-30T07:18:55.798Z,6.70
2018-09-30T07:21:24.897Z,6.80
2018-09-30T07:23:54.050Z,7.00
2018-09-30T07:28:58.352Z,7.20
2018-09-30T07:31:27.379Z,7.30
2018-09-30T07:33:56.435Z,7.50
2018-09-30T07:36:25.553Z,7.60
2018-09-30T07:38:54.672Z,7.80
2018-09-30T07:41:23.727Z,8.00
2018-09-30T07:43:52.838Z,8.10
2018-09-30T07:46:21.842Z,8.30
2018-09-30T07:48:50.873Z,8.50
2018-09-30T07:51:19.900Z,8.70
2018-09-30T07:53:48.975Z,9.00
2018-09-30T07:56:20.849Z,9.20
2018-09-30T07:58:49.908Z,9.40
2018-09-30T08:01:19.185Z,9.60
2018-09-30T08:03:48.404Z,9.70
2018-09-30T08:06:17.521Z,9.90
2018-09-30T08:08:46.550Z,10.00
2018-09-30T08:11:15.572Z,10.10
2018-09-30T08:13:45.229Z,10.30
2018-09-30T08:16:14.314Z,10.40
2018-09-30T08:18:43.384Z,10.50
2018-09-30T08:21:12.416Z,10.60
2018-09-30T08:23:41.461Z,10.80
2018-09-30T08:26:10.528Z,10.90
2018-09-30T08:28:39.529Z,11.00
2018-09-30T08:31:08.727Z,11.30
2018-09-30T08:33:37.732Z,11.60
2018-09-30T08:36:08.189Z,11.90
2018-09-30T08:38:38.461Z,12.10
2018-09-30T08:41:09.864Z,12.20
2018-09-30T08:43:40.257Z,12.30
2018-09-30T08:46:09.701Z,12.40
2018-09-30T08:48:38.750Z,12.50
2018-09-30T08:51:08.492Z,12.50
2018-09-30T08:53:38.024Z,12.60
2018-09-30T08:56:07.206Z,12.70
2018-09-30T08:58:36.252Z,12.70
2018-09-30T09:01:05.367Z,12.60
2018-09-30T09:03:34.417Z,12.40
2018-09-30T09:06:03.526Z,12.30
2018-09-30T09:08:32.563Z,12.10
2018-09-30T09:11:01.628Z,11.90
2018-09-30T09:13:30.756Z,11.80
2018-09-30T09:15:59.817Z,11.80
2018-09-30T09:18:28.860Z,11.70
2018-09-30T09:20:57.933Z,11.80
2018-09-30T09:23:26.986Z,11.90
2018-09-30T09:25:56.062Z,12.00
2018-09-30T09:28:25.143Z,12.10
2018-09-30T09:30:54.183Z,12.20
2018-09-30T09:33:23.247Z,12.30
2018-09-30T09:35:52.302Z,12.40
2018-09-30T09:38:21.377Z,12.50
2018-09-30T09:40:50.558Z,12.70
2018-09-30T09:43:19.602Z,12.70
2018-09-30T09:45:48.680Z,12.80
2018-09-30T09:48:17.815Z,12.90
2018-09-30T09:50:46.866Z,13.00
2018-09-30T09:53:15.950Z,13.00
2018-09-30T09:55:45.029Z,13.10
2018-09-30T09:58:14.104Z,13.20
2018-09-30T10:00:44.914Z,13.30
2018-09-30T10:03:15.901Z,13.40
2018-09-30T10:05:44.989Z,13.40
2018-09-30T10:08:14.276Z,13.50
2018-09-30T10:10:43.533Z,13.60
2018-09-30T10:13:12.585Z,13.70
2018-09-30T10:15:41.655Z,13.70
2018-09-30T10:18:10.697Z,13.80
2018-09-30T10:20:39.812Z,13.90
2018-09-30T10:23:08.877Z,14.00
2018-09-30T10:25:37.901Z,14.10
2018-09-30T10:28:07.013Z,14.10
2018-09-30T10:30:36.156Z,14.20
2018-09-30T10:33:05.262Z,14.30
2018-09-30T10:35:34.844Z,14.40
2018-09-30T10:38:04.529Z,14.50
2018-09-30T10:40:33.805Z,14.60
2018-09-30T10:43:02.884Z,14.70
2018-09-30T10:45:32.076Z,14.70
2018-09-30T10:48:09.516Z,14.80
2018-09-30T10:50:40.746Z,14.90
2018-09-30T10:53:23.693Z,15.00
2018-09-30T10:58:41.280Z,15.20
2018-09-30T11:01:21.300Z,15.20
2018-09-30T11:06:51.423Z,15.40
2018-09-30T11:09:34.035Z,15.70
2018-09-30T11:12:22.955Z,15.90
2018-09-30T11:14:56.740Z,16.10
2018-09-30T11:20:23.860Z,16.00
2018-09-30T11:23:07.501Z,15.90
2018-09-30T11:25:38.223Z,15.90
2018-09-30T11:28:08.788Z,15.80
2018-09-30T11:30:39.522Z,15.70
2018-09-30T11:33:10.877Z,15.60
2018-09-30T11:35:41.521Z,15.60
2018-09-30T11:38:12.376Z,15.60
2018-09-30T11:40:43.618Z,15.50
2018-09-30T11:43:13.944Z,15.50
2018-09-30T11:45:45.287Z,15.70
2018-09-30T11:48:15.403Z,15.80
2018-09-30T11:50:46.816Z,15.80
2018-09-30T11:53:17.062Z,16.00
2018-09-30T11:55:48.589Z,16.00
2018-09-30T11:58:19.148Z,16.10
2018-09-30T12:00:50.225Z,16.10
2018-09-30T12:03:21.777Z,16.10
2018-09-30T12:05:52.487Z,16.20
2018-09-30T12:08:23.085Z,16.00
2018-09-30T12:10:52.268Z,15.90
2018-09-30T12:13:21.591Z,15.80
2018-09-30T12:15:50.658Z,15.80
2018-09-30T12:18:19.787Z,15.80
2018-09-30T12:20:49.218Z,15.80
2018-09-30T12:23:18.255Z,15.80
2018-09-30T12:25:47.388Z,16.00
2018-09-30T12:28:16.437Z,16.10
2018-09-30T12:30:45.482Z,16.30
2018-09-30T12:33:18.843Z,16.40
2018-09-30T12:35:58.530Z,16.50
2018-09-30T12:38:31.787Z,16.50
2018-09-30T12:41:06.649Z,16.50
2018-09-30T12:43:43.350Z,16.70
2018-09-30T12:46:18.804Z,16.80
2018-09-30T12:48:51.130Z,16.80
2018-09-30T12:51:25.359Z,16.90
2018-09-30T12:53:57.576Z,16.90
2018-09-30T12:56:29.294Z,17.00
2018-09-30T12:59:01.648Z,17.10
2018-09-30T13:01:33.711Z,17.10
2018-09-30T13:04:05.456Z,16.90
2018-09-30T13:06:42.370Z,16.90
2018-09-30T13:09:17.503Z,16.90
2018-09-30T13:11:52.873Z,16.80
2018-09-30T13:14:22.143Z,16.80
2018-09-30T13:16:52.573Z,16.90
2018-09-30T13:19:23.858Z,16.90
2018-09-30T13:21:52.961Z,16.90
2018-09-30T13:24:21.986Z,17.00
2018-09-30T13:26:51.087Z,16.90
2018-09-30T13:29:20.178Z,16.90
2018-09-30T13:31:49.292Z,16.80
2018-09-30T13:34:18.348Z,16.70
2018-09-30T13:36:47.435Z,16.70
2018-09-30T13:39:16.545Z,16.70
2018-09-30T13:41:45.796Z,16.70
2018-09-30T13:44:14.847Z,16.80
2018-09-30T13:46:43.895Z,16.80
2018-09-30T13:49:12.963Z,16.90
2018-09-30T13:51:42.112Z,16.90
2018-09-30T13:54:11.162Z,16.80
2018-09-30T13:56:40.236Z,16.60
2018-09-30T13:59:09.261Z,16.50
2018-09-30T14:01:38.985Z,16.30
2018-09-30T14:04:08.133Z,16.20
2018-09-30T14:06:37.896Z,16.10
2018-09-30T14:09:11.617Z,16.00
2018-09-30T14:11:43.770Z,15.90
2018-09-30T14:14:14.258Z,15.70
2018-09-30T14:16:45.379Z,15.60
2018-09-30T14:19:14.611Z,15.50
2018-09-30T14:21:44.400Z,15.30
2018-09-30T14:24:14.274Z,15.40
2018-09-30T14:26:43.890Z,15.30
2018-09-30T14:29:13.089Z,15.30
2018-09-30T14:31:42.178Z,15.30
2018-09-30T14:34:11.809Z,15.20
2018-09-30T14:36:41.000Z,15.10
2018-09-30T14:39:12.692Z,15.10
2018-09-30T14:41:51.535Z,15.10
2018-09-30T14:44:32.274Z,15.10
2018-09-30T14:47:03.228Z,15.10
2018-09-30T14:49:32.241Z,15.10
2018-09-30T14:52:01.379Z,15.20
2018-09-30T14:54:30.492Z,15.10
2018-09-30T14:57:00.497Z,15.10
2018-09-30T14:59:29.840Z,15.10
2018-09-30T15:01:59.535Z,15.10
2018-09-30T15:04:28.843Z,15.10
2018-09-30T15:06:57.912Z,15.10
2018-09-30T15:09:26.992Z,15.10
2018-09-30T15:11:56.942Z,15.10
2018-09-30T15:14:26.029Z,15.00
2018-09-30T15:16:55.171Z,15.00
2018-09-30T15:19:24.188Z,15.00
2018-09-30T15:21:53.234Z,15.00
2018-09-30T15:24:22.333Z,15.10
2018-09-30T15:26:51.754Z,15.20
2018-09-30T15:29:20.921Z,15.20
2018-09-30T15:31:49.942Z,15.20
2018-09-30T15:34:18.991Z,15.20
2018-09-30T15:36:48.004Z,15.10
2018-09-30T15:39:17.064Z,15.00
2018-09-30T15:41:46.585Z,15.00
2018-09-30T15:44:15.653Z,15.00
2018-09-30T15:46:44.706Z,15.00
2018-09-30T15:49:13.802Z,15.10
2018-09-30T15:51:43.128Z,15.10
2018-09-30T15:54:14.078Z,15.00
2018-09-30T15:56:47.150Z,15.00
2018-09-30T15:59:20.066Z,14.90
2018-09-30T16:01:54.425Z,14.80
2018-09-30T16:04:27.499Z,14.80
2018-09-30T16:06:59.437Z,14.70
2018-09-30T16:09:31.027Z,14.70
2018-09-30T16:12:01.495Z,14.80
2018-09-30T16:14:33.383Z,14.70
2018-09-30T16:17:03.785Z,14.60
2018-09-30T16:19:32.974Z,14.60
2018-09-30T16:22:02.763Z,14.40
2018-09-30T16:24:31.841Z,14.30
2018-09-30T16:27:00.881Z,14.20
2018-09-30T16:29:29.962Z,14.10
2018-09-30T16:31:59.060Z,14.00
2018-09-30T16:34:28.092Z,13.90
2018-09-30T16:36:57.184Z,13.80
2018-09-30T16:39:26.274Z,13.80
2018-09-30T16:41:55.325Z,13.70
2018-09-30T16:44:24.432Z,13.60
2018-09-30T16:46:53.496Z,13.50
2018-09-30T16:49:22.562Z,13.40
2018-09-30T16:51:51.616Z,13.40
2018-09-30T16:54:22.489Z,13.30
2018-09-30T16:56:53.022Z,13.20
2018-09-30T16:59:24.097Z,13.10
2018-09-30T17:01:54.301Z,13.00
2018-09-30T17:04:24.721Z,12.90
2018-09-30T17:06:55.111Z,12.80
2018-09-30T17:09:25.867Z,12.70
2018-09-30T17:11:55.732Z,12.60
2018-09-30T17:14:26.209Z,12.50
2018-09-30T17:16:57.419Z,12.40
2018-09-30T17:19:27.636Z,12.30
2018-09-30T17:21:57.546Z,12.30
2018-09-30T17:24:27.690Z,12.30
2018-09-30T17:26:56.844Z,12.20
2018-09-30T17:29:25.898Z,12.20
2018-09-30T17:31:55.015Z,12.00
2018-09-30T17:34:24.064Z,12.00
2018-09-30T17:36:53.135Z,11.90
2018-09-30T17:39:22.210Z,11.90
2018-09-30T17:41:51.377Z,11.80
2018-09-30T17:44:20.481Z,11.80
2018-09-30T17:46:49.625Z,11.70
2018-09-30T17:49:18.792Z,11.70
2018-09-30T17:51:48.888Z,11.70
2018-09-30T17:54:17.977Z,11.60
2018-09-30T17:56:47.051Z,11.60
2018-09-30T17:59:19.200Z,11.60
2018-09-30T18:01:51.741Z,11.60
2018-09-30T18:04:21.909Z,11.60
2018-09-30T18:06:52.462Z,11.60
2018-09-30T18:09:22.620Z,11.60
2018-09-30T18:11:52.287Z,11.50
2018-09-30T18:14:21.361Z,11.60
2018-09-30T18:16:50.517Z,11.60
2018-09-30T18:19:19.488Z,11.60
2018-09-30T18:21:48.557Z,11.60
2018-09-30T18:24:17.648Z,11.60
2018-09-30T18:26:46.724Z,11.70
2018-09-30T18:29:15.772Z,11.70
2018-09-30T18:31:44.816Z,11.80
2018-09-30T18:34:13.866Z,11.80
2018-09-30T18:36:42.901Z,11.80
2018-09-30T18:39:12.880Z,11.90
2018-09-30T18:41:42.366Z,11.90
2018-09-30T18:44:11.533Z,11.90
2018-09-30T18:46:40.558Z,11.90
2018-09-30T18:49:09.611Z,11.80
2018-09-30T18:51:38.680Z,11.90
2018-09-30T18:54:07.752Z,11.80
2018-09-30T18:56:36.808Z,11.80
2018-09-30T18:59:05.851Z,11.70
2018-09-30T19:01:34.929Z,11.70
2018-09-30T19:04:04.000Z,11.70
2018-09-30T19:06:33.075Z,11.70
2018-09-30T19:09:02.089Z,11.60
2018-09-30T19:11:31.123Z,11.60
2018-09-30T19:14:00.205Z,11.60
2018-09-30T19:16:29.252Z,11.60
2018-09-30T19:18:58.363Z,11.60
2018-09-30T19:21:27.413Z,11.60
2018-09-30T19:23:56.431Z,11.60
2018-09-30T19:26:25.512Z,11.60
2018-09-30T19:28:54.562Z,11.60
2018-09-30T19:31:23.607Z,11.50
2018-09-30T19:33:52.643Z,11.50
2018-09-30T19:36:21.675Z,11.50
2018-09-30T19:38:50.870Z,11.50
2018-09-30T19:41:19.908Z,11.50
2018-09-30T19:43:48.994Z,11.50
2018-09-30T19:46:18.007Z,11.50
2018-09-30T19:48:47.223Z,11.50
2018-09-30T19:51:16.181Z,11.50
2018-09-30T19:53:45.264Z,11.50
2018-09-30T19:56:14.276Z,11.50
2018-09-30T19:58:43.377Z,11.50
2018-09-30T20:01:12.447Z,11.50
2018-09-30T20:03:41.516Z,11.40
2018-09-30T20:06:10.528Z,11.40
2018-09-30T20:08:39.563Z,11.40
2018-09-30T20:11:08.653Z,11.40
2018-09-30T20:13:37.698Z,11.50
2018-09-30T20:16:06.753Z,11.50
2018-09-30T20:18:35.808Z,11.60
2018-09-30T20:21:04.844Z,11.60
2018-09-30T20:23:33.922Z,11.70
2018-09-30T20:26:02.936Z,11.80
2018-09-30T20:28:32.004Z,11.90
2018-09-30T20:31:01.057Z,11.90
2018-09-30T20:33:30.120Z,11.90
2018-09-30T20:35:59.131Z,11.90
2018-09-30T20:38:28.164Z,11.90
2018-09-30T20:40:57.262Z,11.90
2018-09-30T20:43:26.324Z,11.90
2018-09-30T20:45:55.418Z,11.90
2018-09-30T20:48:24.448Z,11.80
2018-09-30T20:50:53.522Z,11.80
2018-09-30T20:53:22.664Z,11.80
2018-09-30T20:55:51.792Z,11.70
2018-09-30T20:58:20.840Z,11.70
2018-09-30T21:00:50.622Z,11.70
2018-09-30T21:03:19.690Z,11.60
2018-09-30T21:06:10.726Z,11.60
2018-09-30T21:08:39.797Z,11.60
2018-09-30T21:11:08.805Z,11.60
2018-09-30T21:13:38.352Z,11.60
2018-09-30T21:16:07.480Z,11.50
2018-09-30T21:18:36.606Z,11.50
2018-09-30T21:21:05.647Z,11.50
2018-09-30T21:23:35.367Z,11.50
2018-09-30T21:26:04.491Z,11.50
2018-09-30T21:28:33.548Z,11.50
2018-09-30T21:31:02.666Z,11.50
2018-09-30T21:33:31.743Z,11.50
2018-09-30T21:36:00.862Z,11.50
2018-09-30T21:38:30.025Z,11.50
2018-09-30T21:40:59.832Z,11.40
2018-09-30T21:43:28.890Z,11.40
2018-09-30T21:45:58.040Z,11.40
2018-09-30T21:48:27.085Z,11.40
2018-09-30T21:50:56.177Z,11.40
2018-09-30T21:53:25.407Z,11.40
2018-09-30T21:55:54.588Z,11.30
2018-09-30T21:58:23.654Z,11.30
2018-09-30T22:00:56.756Z,11.30
2018-09-30T22:03:26.662Z,11.20
2018-09-30T22:05:55.742Z,11.20
2018-09-30T22:08:24.856Z,11.30
2018-09-30T22:10:53.987Z,11.30
2018-09-30T22:13:23.039Z,11.30
2018-09-30T22:15:52.113Z,11.30
2018-09-30T22:18:21.484Z,11.40
2018-09-30T22:20:51.240Z,11.40
2018-09-30T22:23:22.681Z,11.40
2018-09-30T22:25:52.121Z,11.30
2018-09-30T22:28:21.278Z,11.30
2018-09-30T22:30:51.072Z,11.30
2018-09-30T22:33:21.351Z,11.30
2018-09-30T22:35:50.481Z,11.30
2018-09-30T22:38:19.611Z,11.30
2018-09-30T22:40:48.729Z,11.30
2018-09-30T22:43:18.118Z,11.30
2018-09-30T22:45:47.882Z,11.30
2018-09-30T22:48:17.366Z,11.30
2018-09-30T22:50:46.440Z,11.30
2018-09-30T22:53:15.491Z,11.30
2018-09-30T22:55:44.556Z,11.30
2018-09-30T22:58:13.689Z,11.30
2018-09-30T23:00:42.769Z,11.30
2018-09-30T23:03:11.969Z,11.30
2018-09-30T23:05:41.035Z,11.30
2018-09-30T23:08:10.121Z,11.20
2018-09-30T23:10:39.148Z,11.20
2018-09-30T23:13:08.178Z,11.10
2018-09-30T23:15:37.853Z,11.00
2018-09-30T23:18:06.920Z,11.00
2018-09-30T23:20:35.973Z,10.90
2018-09-30T23:23:05.042Z,10.90
2018-09-30T23:25:34.057Z,10.90
2018-09-30T23:28:03.131Z,10.90
2018-09-30T23:30:32.221Z,10.80
2018-09-30T23:33:01.310Z,10.80
2018-09-30T23:35:30.474Z,10.70
2018-09-30T23:37:59.520Z,10.70
2018-09-30T23:40:28.613Z,10.60
2018-09-30T23:42:57.700Z,10.60
2018-09-30T23:45:26.772Z,10.50
2018-09-30T23:47:55.809Z,10.50
2018-09-30T23:50:24.920Z,10.50
2018-09-30T23:52:53.937Z,10.50
2018-09-30T23:55:23.016Z,10.50
2018-09-30T23:57:52.147Z,10.60
